Time,TemperatureF,DewpointF,PressureIn,WindDirection,WindDirectionDegrees,WindSpeedMPH,WindSpeedGustMPH,Humidity,HourlyPrecipIn,Conditions,Clouds,dailyrainin,SoftwareType,DateUTC
2013-02-27 00:02:00,48.0,-99.9,29.64,East,100,18.0,22.0,-999,-99.99,,,-99.99,,2013-02-27 05:02:00,
2013-02-27 00:12:00,49.0,-99.9,29.64,ESE,110,15.0,20.0,-999,-99.99,,,-99.99,,2013-02-27 05:12:00,
2013-02-27 00:22:00,47.0,-99.9,29.63,ENE,74,12.0,15.0,-999,-99.99,,,-99.99,,2013-02-27 05:22:00,
2013-02-27 00:32:00,47.0,-99.9,29.61,East,86,9.0,11.0,-999,-99.99,,,-99.99,,2013-02-27 05:32:00,
2013-02-27 00:42:00,47.0,-99.9,29.60,East,87,11.0,16.0,-999,-99.99,,,-99.99,,2013-02-27 05:42:00,
2013-02-27 00:52:00,51.0,-99.9,29.59,SE,134,15.0,25.0,-999,-99.99,,,-99.99,,2013-02-27 05:52:00,
2013-02-27 01:02:00,52.0,-99.9,29.58,SE,139,17.0,27.0,-999,-99.99,,,-99.99,,2013-02-27 06:02:00,
2013-02-27 01:11:00,52.0,-99.9,29.57,SE,129,21.0,32.0,-999,-99.99,,,-99.99,,2013-02-27 06:11:00,
2013-02-27 01:22:00,50.0,-99.9,29.58,SE,132,12.0,16.0,-999,-99.99,,,-99.99,,2013-02-27 06:22:00,
2013-02-27 01:33:00,50.0,-99.9,29.57,SE,138,15.0,21.0,-999,-99.99,,,-99.99,,2013-02-27 06:33:00,
2013-02-27 01:42:00,50.0,-99.9,29.57,SE,136,15.0,21.0,-999,-99.99,,,-99.99,,2013-02-27 06:42:00,
2013-02-27 01:52:00,50.0,-99.9,29.56,SE,137,14.0,20.0,-999,-99.99,,,-99.99,,2013-02-27 06:52:00,
2013-02-27 02:01:00,50.0,-99.9,29.56,SE,143,13.0,22.0,-999,-99.99,,,-99.99,,2013-02-27 07:01:00,
2013-02-27 02:12:00,49.0,-99.9,29.56,SE,143,12.0,18.0,-999,-99.99,,,-99.99,,2013-02-27 07:12:00,
2013-02-27 02:22:00,49.0,-99.9,29.55,SE,140,10.0,15.0,-999,-99.99,,,-99.99,,2013-02-27 07:22:00,
2013-02-27 02:32:00,49.0,-99.9,29.55,SSE,152,13.0,18.0,-999,-99.99,,,-99.99,,2013-02-27 07:32:00,
2013-02-27 02:42:00,49.0,-99.9,29.55,SSE,152,10.0,14.0,-999,-99.99,,,-99.99,,2013-02-27 07:42:00,
2013-02-27 02:52:00,49.0,-99.9,29.54,SSE,154,10.0,13.0,-999,-99.99,,,-99.99,,2013-02-27 07:52:00,
2013-02-27 03:01:00,50.0,-99.9,29.53,SSE,156,11.0,16.0,-999,-99.99,,,-99.99,,2013-02-27 08:01:00,
2013-02-27 03:12:00,50.0,-99.9,29.53,SSE,158,10.0,14.0,-999,-99.99,,,-99.99,,2013-02-27 08:12:00,
2013-02-27 03:22:00,50.0,-99.9,29.53,SSE,162,10.0,13.0,-999,-99.99,,,-99.99,,2013-02-27 08:22:00,
2013-02-27 03:32:00,50.0,-99.9,29.53,SSE,164,8.0,10.0,-999,-99.99,,,-99.99,,2013-02-27 08:32:00,
2013-02-27 03:42:00,50.0,-99.9,29.52,SE,145,8.0,10.0,-999,-99.99,,,-99.99,,2013-02-27 08:42:00,
2013-02-27 03:53:00,50.0,-99.9,29.51,SSE,161,10.0,12.0,-999,-99.99,,,-99.99,,2013-02-27 08:53:00,
2013-02-27 04:02:00,50.0,-99.9,29.50,SSE,161,9.0,13.0,-999,-99.99,,,-99.99,,2013-02-27 09:02:00,
2013-02-27 04:12:00,49.0,-99.9,29.49,SSE,157,9.0,12.0,-999,-99.99,,,-99.99,,2013-02-27 09:12:00,
2013-02-27 04:22:00,49.0,-99.9,29.50,South,183,8.0,11.0,-999,-99.99,,,-99.99,,2013-02-27 09:22:00,
2013-02-27 04:32:00,49.0,-99.9,29.49,South,182,9.0,13.0,-999,-99.99,,,-99.99,,2013-02-27 09:32:00,
2013-02-27 04:42:00,49.0,-99.9,29.49,South,176,9.0,12.0,-999,-99.99,,,-99.99,,2013-02-27 09:42:00,
2013-02-27 04:52:00,49.0,-99.9,29.49,SSW,192,7.0,10.0,-999,-99.99,,,-99.99,,2013-02-27 09:52:00,
2013-02-27 05:01:00,49.0,-99.9,29.50,SSW,203,5.0,8.0,-999,-99.99,,,-99.99,,2013-02-27 10:01:00,
2013-02-27 05:12:00,49.0,-99.9,29.50,SSW,201,5.0,8.0,-999,-99.99,,,-99.99,,2013-02-27 10:12:00,
2013-02-27 05:22:00,50.0,-99.9,29.50,SSW,202,6.0,10.0,-999,-99.99,,,-99.99,,2013-02-27 10:22:00,
2013-02-27 05:32:00,50.0,-99.9,29.49,SSW,200,5.0,8.0,-999,-99.99,,,-99.99,,2013-02-27 10:32:00,
2013-02-27 05:42:00,50.0,-99.9,29.49,SSW,197,7.0,12.0,-999,-99.99,,,-99.99,,2013-02-27 10:42:00,
2013-02-27 05:53:00,51.0,-99.9,29.49,SSW,195,6.0,9.0,-999,-99.99,,,-99.99,,2013-02-27 10:53:00,
2013-02-27 06:03:00,51.0,-99.9,29.49,South,185,6.0,9.0,-999,-99.99,,,-99.99,,2013-02-27 11:03:00,
2013-02-27 06:12:00,50.0,-99.9,29.49,SSW,207,6.0,9.0,-999,-99.99,,,-99.99,,2013-02-27 11:12:00,
2013-02-27 06:22:00,50.0,-99.9,29.49,SSW,192,5.0,6.0,-999,-99.99,,,-99.99,,2013-02-27 11:22:00,
2013-02-27 06:32:00,50.0,-99.9,29.49,SSW,194,4.0,6.0,-999,-99.99,,,-99.99,,2013-02-27 11:32:00,
2013-02-27 06:42:00,50.0,-99.9,29.50,SW,234,7.0,10.0,-999,-99.99,,,-99.99,,2013-02-27 11:42:00,
2013-02-27 06:52:00,51.0,-99.9,29.50,WSW,241,7.0,11.0,-999,-99.99,,,-99.99,,2013-02-27 11:52:00,
2013-02-27 07:02:00,52.0,-99.9,29.50,WSW,246,6.0,8.0,-999,-99.99,,,-99.99,,2013-02-27 12:02:00,
2013-02-27 07:13:00,52.0,-99.9,29.50,WSW,246,6.0,8.0,-999,-99.99,,,-99.99,,2013-02-27 12:13:00,
2013-02-27 07:22:00,52.0,-99.9,29.50,WSW,246,9.0,13.0,-999,-99.99,,,-99.99,,2013-02-27 12:22:00,
2013-02-27 07:33:00,51.0,-99.9,29.52,WSW,249,13.0,18.0,-999,-99.99,,,-99.99,,2013-02-27 12:33:00,
2013-02-27 07:42:00,51.0,-99.9,29.52,WSW,243,9.0,12.0,-999,-99.99,,,-99.99,,2013-02-27 12:42:00,
2013-02-27 07:53:00,51.0,-99.9,29.52,WSW,242,11.0,17.0,-999,-99.99,,,-99.99,,2013-02-27 12:53:00,
2013-02-27 08:03:00,51.0,-99.9,29.53,WSW,244,8.0,13.0,-999,-99.99,,,-99.99,,2013-02-27 13:03:00,
2013-02-27 08:12:00,51.0,-99.9,29.53,SW,235,10.0,15.0,-999,-99.99,,,-99.99,,2013-02-27 13:12:00,
2013-02-27 08:22:00,50.0,-99.9,29.53,WSW,240,10.0,13.0,-999,-99.99,,,-99.99,,2013-02-27 13:22:00,
2013-02-27 08:32:00,50.0,-99.9,29.53,WSW,244,8.0,11.0,-999,-99.99,,,-99.99,,2013-02-27 13:32:00,
2013-02-27 08:42:00,50.0,-99.9,29.54,WSW,244,9.0,13.0,-999,-99.99,,,-99.99,,2013-02-27 13:42:00,
2013-02-27 08:53:00,51.0,-99.9,29.54,WSW,247,6.0,11.0,-999,-99.99,,,-99.99,,2013-02-27 13:53:00,
2013-02-27 09:02:00,50.0,-99.9,29.55,WSW,243,13.0,21.0,-999,-99.99,,,-99.99,,2013-02-27 14:02:00,
2013-02-27 09:12:00,50.0,-99.9,29.56,West,265,16.0,21.0,-999,-99.99,,,-99.99,,2013-02-27 14:12:00,
2013-02-27 09:22:00,49.0,-99.9,29.56,WSW,246,13.0,19.0,-999,-99.99,,,-99.99,,2013-02-27 14:22:00,
2013-02-27 09:32:00,49.0,-99.9,29.57,WSW,244,7.0,13.0,-999,-99.99,,,-99.99,,2013-02-27 14:32:00,
2013-02-27 09:42:00,49.0,-99.9,29.56,WSW,254,10.0,22.0,-999,-99.99,,,-99.99,,2013-02-27 14:42:00,
2013-02-27 09:53:00,49.0,-99.9,29.57,WSW,250,15.0,20.0,-999,-99.99,,,-99.99,,2013-02-27 14:53:00,
2013-02-27 10:02:00,48.0,-99.9,29.58,West,271,22.0,30.0,-999,-99.99,,,-99.99,,2013-02-27 15:02:00,
2013-02-27 10:13:00,48.0,-99.9,29.58,WSW,254,18.0,23.0,-999,-99.99,,,-99.99,,2013-02-27 15:13:00,
2013-02-27 10:23:00,47.0,-99.9,29.58,West,261,18.0,24.0,-999,-99.99,,,-99.99,,2013-02-27 15:23:00,
2013-02-27 10:32:00,47.0,-99.9,29.59,West,266,19.0,27.0,-999,-99.99,,,-99.99,,2013-02-27 15:32:00,
2013-02-27 10:42:00,48.0,-99.9,29.59,West,262,16.0,20.0,-999,-99.99,,,-99.99,,2013-02-27 15:42:00,
2013-02-27 10:52:00,48.0,-99.9,29.60,West,273,23.0,28.0,-999,-99.99,,,-99.99,,2013-02-27 15:52:00,
2013-02-27 11:02:00,48.0,-99.9,29.60,West,264,18.0,23.0,-999,-99.99,,,-99.99,,2013-02-27 16:02:00,
2013-02-27 11:12:00,48.0,-99.9,29.60,West,270,19.0,26.0,-999,-99.99,,,-99.99,,2013-02-27 16:12:00,
2013-02-27 11:22:00,48.0,-99.9,29.60,West,270,15.0,20.0,-999,-99.99,,,-99.99,,2013-02-27 16:22:00,
2013-02-27 11:32:00,48.0,-99.9,29.61,West,276,19.0,24.0,-999,-99.99,,,-99.99,,2013-02-27 16:32:00,
2013-02-27 11:42:00,49.0,-99.9,29.61,West,271,16.0,19.0,-999,-99.99,,,-99.99,,2013-02-27 16:42:00,
2013-02-27 11:52:00,49.0,-99.9,29.61,West,278,21.0,27.0,-999,-99.99,,,-99.99,,2013-02-27 16:52:00,
2013-02-27 12:02:00,50.0,-99.9,29.61,West,279,19.0,23.0,-999,-99.99,,,-99.99,,2013-02-27 17:02:00,
2013-02-27 12:11:00,50.0,-99.9,29.61,West,279,19.0,23.0,-999,-99.99,,,-99.99,,2013-02-27 17:11:00,
2013-02-27 12:22:00,49.0,-99.9,29.60,WNW,290,19.0,23.0,-999,-99.99,,,-99.99,,2013-02-27 17:22:00,
2013-02-27 12:32:00,49.0,-99.9,29.60,WNW,293,19.0,23.0,-999,-99.99,,,-99.99,,2013-02-27 17:32:00,
2013-02-27 12:42:00,49.0,-99.9,29.60,WNW,299,19.0,21.0,-999,-99.99,,,-99.99,,2013-02-27 17:42:00,
2013-02-27 12:52:00,49.0,-99.9,29.60,WNW,290,18.0,22.0,-999,-99.99,,,-99.99,,2013-02-27 17:52:00,
2013-02-27 13:02:00,50.0,-99.9,29.60,WNW,285,24.0,29.0,-999,-99.99,,,-99.99,,2013-02-27 18:02:00,
2013-02-27 13:11:00,50.0,-99.9,29.60,WNW,289,21.0,26.0,-999,-99.99,,,-99.99,,2013-02-27 18:11:00,
2013-02-27 13:22:00,51.0,-99.9,29.61,WNW,290,20.0,23.0,-999,-99.99,,,-99.99,,2013-02-27 18:22:00,
2013-02-27 13:32:00,51.0,-99.9,29.61,WNW,293,22.0,25.0,-999,-99.99,,,-99.99,,2013-02-27 18:32:00,
2013-02-27 13:42:00,50.0,-99.9,29.61,WNW,290,16.0,19.0,-999,-99.99,,,-99.99,,2013-02-27 18:42:00,
2013-02-27 13:52:00,51.0,-99.9,29.60,WNW,289,20.0,26.0,-999,-99.99,,,-99.99,,2013-02-27 18:52:00,
2013-02-27 14:02:00,51.0,-99.9,29.61,WNW,300,21.0,23.0,-999,-99.99,,,-99.99,,2013-02-27 19:02:00,
2013-02-27 14:12:00,50.0,-99.9,29.61,WNW,300,19.0,23.0,-999,-99.99,,,-99.99,,2013-02-27 19:12:00,
2013-02-27 14:22:00,51.0,-99.9,29.61,WNW,303,19.0,21.0,-999,-99.99,,,-99.99,,2013-02-27 19:22:00,
2013-02-27 14:32:00,49.0,-99.9,29.61,NW,306,15.0,18.0,-999,-99.99,,,-99.99,,2013-02-27 19:32:00,
2013-02-27 14:42:00,50.0,-99.9,29.61,WNW,301,18.0,23.0,-999,-99.99,,,-99.99,,2013-02-27 19:42:00,
2013-02-27 14:52:00,52.0,-99.9,29.61,WNW,294,20.0,24.0,-999,-99.99,,,-99.99,,2013-02-27 19:52:00,
2013-02-27 15:02:00,51.0,-99.9,29.62,WNW,299,19.0,23.0,-999,-99.99,,,-99.99,,2013-02-27 20:02:00,
2013-02-27 15:12:00,51.0,-99.9,29.62,NW,304,19.0,21.0,-999,-99.99,,,-99.99,,2013-02-27 20:12:00,
2013-02-27 15:22:00,52.0,-99.9,29.62,WNW,297,14.0,17.0,-999,-99.99,,,-99.99,,2013-02-27 20:22:00,
2013-02-27 15:32:00,53.0,-99.9,29.62,West,281,18.0,21.0,-999,-99.99,,,-99.99,,2013-02-27 20:32:00,
2013-02-27 15:42:00,53.0,-99.9,29.63,WNW,288,17.0,21.0,-999,-99.99,,,-99.99,,2013-02-27 20:42:00,
2013-02-27 15:53:00,51.0,-99.9,29.63,WNW,290,15.0,21.0,-999,-99.99,,,-99.99,,2013-02-27 20:53:00,
2013-02-27 16:02:00,53.0,-99.9,29.63,WNW,289,19.0,24.0,-999,-99.99,,,-99.99,,2013-02-27 21:02:00,
2013-02-27 16:12:00,52.0,-99.9,29.64,WNW,294,15.0,17.0,-999,-99.99,,,-99.99,,2013-02-27 21:12:00,
2013-02-27 16:22:00,53.0,-99.9,29.64,WNW,286,15.0,18.0,-999,-99.99,,,-99.99,,2013-02-27 21:22:00,
2013-02-27 16:32:00,53.0,-99.9,29.64,West,280,15.0,20.0,-999,-99.99,,,-99.99,,2013-02-27 21:32:00,
2013-02-27 16:42:00,54.0,-99.9,29.63,West,278,13.0,17.0,-999,-99.99,,,-99.99,,2013-02-27 21:42:00,
2013-02-27 16:52:00,52.0,-99.9,29.64,WNW,287,12.0,15.0,-999,-99.99,,,-99.99,,2013-02-27 21:52:00,
2013-02-27 17:02:00,52.0,-99.9,29.63,WNW,300,13.0,15.0,-999,-99.99,,,-99.99,,2013-02-27 22:02:00,
2013-02-27 17:12:00,51.0,-99.9,29.63,WNW,303,11.0,12.0,-999,-99.99,,,-99.99,,2013-02-27 22:12:00,
2013-02-27 17:22:00,52.0,-99.9,29.63,NW,306,8.0,10.0,-999,-99.99,,,-99.99,,2013-02-27 22:22:00,
2013-02-27 17:32:00,52.0,-99.9,29.64,WNW,288,5.0,6.0,-999,-99.99,,,-99.99,,2013-02-27 22:32:00,
2013-02-27 17:42:00,51.0,-99.9,29.64,WNW,290,4.0,7.0,-999,-99.99,,,-99.99,,2013-02-27 22:42:00,
2013-02-27 17:52:00,54.0,-99.9,29.65,West,278,8.0,9.0,-999,-99.99,,,-99.99,,2013-02-27 22:52:00,
2013-02-27 18:02:00,53.0,-99.9,29.65,WSW,258,4.0,6.0,-999,-99.99,,,-99.99,,2013-02-27 23:02:00,
2013-02-27 18:12:00,53.0,-99.9,29.65,WSW,250,4.0,6.0,-999,-99.99,,,-99.99,,2013-02-27 23:12:00,
2013-02-27 18:22:00,53.0,-99.9,29.66,WSW,245,3.0,4.0,-999,-99.99,,,-99.99,,2013-02-27 23:22:00,
2013-02-27 18:32:00,52.0,-99.9,29.67,SW,227,3.0,4.0,-999,-99.99,,,-99.99,,2013-02-27 23:32:00,
2013-02-27 18:42:00,52.0,-99.9,29.67,SW,221,3.0,4.0,-999,-99.99,,,-99.99,,2013-02-27 23:42:00,
2013-02-27 18:53:00,52.0,-99.9,29.67,SSW,203,2.0,4.0,-999,-99.99,,,-99.99,,2013-02-27 23:53:00,
2013-02-27 19:02:00,52.0,-99.9,29.67,SW,218,3.0,5.0,-999,-99.99,,,-99.99,,2013-02-28 00:02:00,
2013-02-27 19:13:00,52.0,-99.9,29.67,SSW,204,2.0,3.0,-999,-99.99,,,-99.99,,2013-02-28 00:13:00,
2013-02-27 19:22:00,52.0,-99.9,29.67,SSW,192,2.0,3.0,-999,-99.99,,,-99.99,,2013-02-28 00:22:00,
2013-02-27 19:32:00,52.0,-99.9,29.67,SSW,203,3.0,4.0,-999,-99.99,,,-99.99,,2013-02-28 00:32:00,
2013-02-27 19:42:00,52.0,-99.9,29.68,SW,217,3.0,4.0,-999,-99.99,,,-99.99,,2013-02-28 00:42:00,
2013-02-27 19:52:00,51.0,-99.9,29.67,SSW,200,3.0,4.0,-999,-99.99,,,-99.99,,2013-02-28 00:52:00,
2013-02-27 20:01:00,51.0,-99.9,29.67,SSW,193,3.0,3.0,-999,-99.99,,,-99.99,,2013-02-28 01:01:00,
2013-02-27 20:11:00,51.0,-99.9,29.67,South,184,3.0,4.0,-999,-99.99,,,-99.99,,2013-02-28 01:11:00,
2013-02-27 20:22:00,51.0,-99.9,29.67,SSW,200,2.0,4.0,-999,-99.99,,,-99.99,,2013-02-28 01:22:00,
2013-02-27 20:32:00,51.0,-99.9,29.67,South,186,4.0,6.0,-999,-99.99,,,-99.99,,2013-02-28 01:32:00,
2013-02-27 20:42:00,51.0,-99.9,29.67,South,186,4.0,6.0,-999,-99.99,,,-99.99,,2013-02-28 01:42:00,
2013-02-27 20:52:00,51.0,-99.9,29.67,SSW,195,3.0,4.0,-999,-99.99,,,-99.99,,2013-02-28 01:52:00,
2013-02-27 21:01:00,51.0,-99.9,29.67,South,174,4.0,5.0,-999,-99.99,,,-99.99,,2013-02-28 02:01:00,
2013-02-27 21:11:00,50.0,-99.9,29.68,South,179,4.0,5.0,-999,-99.99,,,-99.99,,2013-02-28 02:11:00,
2013-02-27 21:22:00,51.0,-99.9,29.67,South,176,4.0,5.0,-999,-99.99,,,-99.99,,2013-02-28 02:22:00,
2013-02-27 21:32:00,50.0,-99.9,29.67,South,172,3.0,4.0,-999,-99.99,,,-99.99,,2013-02-28 02:32:00,
2013-02-27 21:42:00,50.0,-99.9,29.67,South,172,3.0,4.0,-999,-99.99,,,-99.99,,2013-02-28 02:42:00,
2013-02-27 21:52:00,50.0,-99.9,29.67,South,172,3.0,4.0,-999,-99.99,,,-99.99,,2013-02-28 02:52:00,
2013-02-27 22:02:00,50.0,-99.9,29.67,South,175,3.0,4.0,-999,-99.99,,,-99.99,,2013-02-28 03:02:00,
2013-02-27 22:11:00,49.0,-99.9,29.67,SW,228,2.0,3.0,-999,-99.99,,,-99.99,,2013-02-28 03:11:00,
2013-02-27 22:22:00,49.0,-99.9,29.68,NW,323,14.0,15.0,-999,-99.99,,,-99.99,,2013-02-28 03:22:00,
2013-02-27 22:32:00,47.0,-99.9,29.69,NNW,330,10.0,13.0,-999,-99.99,,,-99.99,,2013-02-28 03:32:00,
2013-02-27 22:42:00,49.0,-99.9,29.68,NNW,344,9.0,11.0,-999,-99.99,,,-99.99,,2013-02-28 03:42:00,
2013-02-27 22:52:00,47.0,-99.9,29.68,NNW,336,5.0,8.0,-999,-99.99,,,-99.99,,2013-02-28 03:52:00,
2013-02-27 23:02:00,44.0,-99.9,29.68,NNW,338,4.0,7.0,-999,-99.99,,,-99.99,,2013-02-28 04:02:00,
2013-02-27 23:11:00,46.0,-99.9,29.68,NNW,344,9.0,11.0,-999,-99.99,,,-99.99,,2013-02-28 04:11:00,
2013-02-27 23:22:00,46.0,-99.9,29.67,North,5,8.0,9.0,-999,-99.99,,,-99.99,,2013-02-28 04:22:00,
2013-02-27 23:32:00,45.0,-99.9,29.67,NNW,329,5.0,6.0,-999,-99.99,,,-99.99,,2013-02-28 04:32:00,
2013-02-27 23:42:00,44.0,-99.9,29.67,WNW,302,3.0,4.0,-999,-99.99,,,-99.99,,2013-02-28 04:42:00,
2013-02-27 23:52:00,44.0,-99.9,29.67,WNW,287,2.0,2.0,-999,-99.99,,,-99.99,,2013-02-28 04:52:00,